createdAt,value
2017-09-16T00:02:20.471Z,7.47
2017-09-16T00:04:46.682Z,8.40
2017-09-16T00:07:12.970Z,8.63
2017-09-16T00:09:39.182Z,8.10
2017-09-16T00:12:05.385Z,8.17
2017-09-16T00:14:31.668Z,8.20
2017-09-16T00:16:57.895Z,7.60
2017-09-16T00:19:24.101Z,8.63
2017-09-16T00:21:50.371Z,8.07
2017-09-16T00:24:16.574Z,7.57
2017-09-16T00:26:42.799Z,8.73
2017-09-16T00:29:09.066Z,8.70
2017-09-16T00:31:35.278Z,8.03
2017-09-16T00:34:01.478Z,8.90
2017-09-16T00:36:27.755Z,9.47
2017-09-16T00:38:53.982Z,9.30
2017-09-16T00:41:20.310Z,7.87
2017-09-16T00:43:46.565Z,10.40
2017-09-16T00:46:12.769Z,8.53
2017-09-16T00:48:38.991Z,8.90
2017-09-16T00:51:05.284Z,9.83
2017-09-16T00:53:31.491Z,9.80
2017-09-16T00:55:57.705Z,8.50
2017-09-16T00:58:23.979Z,9.63
2017-09-16T01:00:50.192Z,9.90
2017-09-16T01:03:16.415Z,9.10
2017-09-16T01:05:42.700Z,9.50
2017-09-16T01:08:09.005Z,8.30
2017-09-16T01:10:35.232Z,8.73
2017-09-16T01:13:01.532Z,9.50
2017-09-16T01:15:27.755Z,9.23
2017-09-16T01:17:54.136Z,8.17
2017-09-16T01:20:20.764Z,9.57
2017-09-16T01:22:47.016Z,9.77
2017-09-16T01:25:13.653Z,9.80
2017-09-16T01:27:40.261Z,9.23
2017-09-16T01:30:06.682Z,8.70
2017-09-16T01:32:32.957Z,9.27
2017-09-16T01:34:59.185Z,10.10
2017-09-16T01:37:25.395Z,8.50
2017-09-16T01:39:51.626Z,9.73
2017-09-16T01:42:17.854Z,8.47
2017-09-16T01:44:44.096Z,7.97
2017-09-16T01:47:10.320Z,8.60
2017-09-16T01:49:36.552Z,7.73
2017-09-16T01:52:02.913Z,7.73
2017-09-16T01:54:29.377Z,8.33
2017-09-16T01:56:55.842Z,8.63
2017-09-16T01:59:22.254Z,8.67
2017-09-16T02:01:48.678Z,8.23
2017-09-16T02:04:14.938Z,9.27
2017-09-16T02:06:41.171Z,9.80
2017-09-16T02:09:07.680Z,9.50
2017-09-16T02:11:34.095Z,9.40
2017-09-16T02:14:00.682Z,8.40
2017-09-16T02:16:27.331Z,8.70
2017-09-16T02:18:53.739Z,8.83
2017-09-16T02:21:19.949Z,8.50
2017-09-16T02:23:46.239Z,9.90
2017-09-16T02:26:12.465Z,11.10
2017-09-16T02:28:38.672Z,9.90
2017-09-16T02:31:04.952Z,9.53
2017-09-16T02:33:31.185Z,8.37
2017-09-16T02:35:57.540Z,7.47
2017-09-16T02:38:24.026Z,9.20
2017-09-16T02:40:50.471Z,9.23
2017-09-16T02:43:16.917Z,8.00
2017-09-16T02:45:43.457Z,10.00
2017-09-16T02:48:09.729Z,9.47
2017-09-16T02:50:35.921Z,9.10
2017-09-16T02:53:02.385Z,8.33
2017-09-16T02:55:28.602Z,9.27
2017-09-16T02:57:54.805Z,8.80
2017-09-16T03:00:21.072Z,8.77
2017-09-16T03:02:47.483Z,7.97
2017-09-16T03:05:13.720Z,8.63
2017-09-16T03:07:40.004Z,10.77
2017-09-16T03:10:06.222Z,9.83
2017-09-16T03:12:32.471Z,9.63
2017-09-16T03:14:58.769Z,10.30
2017-09-16T03:17:25.000Z,8.90
2017-09-16T03:19:51.235Z,10.23
2017-09-16T03:22:17.500Z,9.57
2017-09-16T03:24:43.730Z,10.43
2017-09-16T03:27:09.954Z,10.43
2017-09-16T03:29:36.225Z,9.90
2017-09-16T03:32:02.434Z,9.23
2017-09-16T03:34:28.650Z,9.63
2017-09-16T03:36:54.936Z,9.50
2017-09-16T03:39:21.333Z,9.70
2017-09-16T03:41:47.556Z,9.53
2017-09-16T03:44:13.835Z,13.10
2017-09-16T03:46:40.063Z,12.10
2017-09-16T03:49:06.871Z,10.13
2017-09-16T03:51:33.511Z,10.70
2017-09-16T03:53:59.945Z,9.23
2017-09-16T03:56:26.582Z,10.37
2017-09-16T03:58:52.891Z,10.60
2017-09-16T04:01:19.107Z,9.50
2017-09-16T04:03:45.352Z,10.40
2017-09-16T04:06:11.867Z,9.70
2017-09-16T04:08:38.289Z,9.50
2017-09-16T04:11:04.629Z,8.83
2017-09-16T04:13:31.206Z,7.90
2017-09-16T04:15:57.639Z,8.70
2017-09-16T04:18:24.073Z,8.90
2017-09-16T04:20:50.697Z,9.13
2017-09-16T04:23:17.144Z,7.70
2017-09-16T04:25:43.784Z,7.23
2017-09-16T04:28:10.079Z,6.93
2017-09-16T04:30:36.316Z,12.10
2017-09-16T04:33:02.529Z,9.90
2017-09-16T04:35:28.886Z,8.40
2017-09-16T04:37:55.102Z,8.77
2017-09-16T04:40:21.319Z,7.03
2017-09-16T04:42:47.596Z,8.47
2017-09-16T04:45:13.819Z,6.87
2017-09-16T04:47:40.045Z,7.37
2017-09-16T04:50:06.318Z,6.10
2017-09-16T04:52:32.549Z,6.87
2017-09-16T04:54:58.795Z,6.03
2017-09-16T04:57:25.083Z,7.23
2017-09-16T04:59:51.306Z,6.47
2017-09-16T05:02:17.523Z,6.00
2017-09-16T05:04:43.816Z,6.27
2017-09-16T05:07:10.044Z,5.10
2017-09-16T05:09:36.277Z,6.00
2017-09-16T05:12:02.544Z,6.97
2017-09-16T05:14:28.770Z,7.20
2017-09-16T05:16:54.992Z,7.10
2017-09-16T05:19:21.269Z,7.10
2017-09-16T05:21:47.506Z,5.97
2017-09-16T05:24:13.735Z,9.10
2017-09-16T05:26:40.018Z,7.30
2017-09-16T05:29:06.245Z,8.10
2017-09-16T05:31:32.476Z,5.83
2017-09-16T05:33:58.746Z,5.93
2017-09-16T05:36:24.988Z,5.40
2017-09-16T05:38:51.226Z,16.03
2017-09-16T05:41:17.504Z,8.17
2017-09-16T05:43:43.721Z,6.60
2017-09-16T05:46:09.994Z,7.33
2017-09-16T05:48:36.237Z,6.23
2017-09-16T05:51:02.601Z,8.23
2017-09-16T05:53:28.816Z,8.83
2017-09-16T05:55:55.092Z,7.60
2017-09-16T05:58:21.307Z,9.27
2017-09-16T06:00:47.545Z,7.90
2017-09-16T06:03:13.815Z,7.57
2017-09-16T06:05:40.050Z,8.57
2017-09-16T06:08:06.294Z,7.23
2017-09-16T06:10:32.548Z,6.00
2017-09-16T06:12:58.766Z,6.53
2017-09-16T06:15:24.974Z,5.70
2017-09-16T06:17:51.242Z,5.10
2017-09-16T06:20:17.465Z,5.13
2017-09-16T06:22:43.682Z,5.30
2017-09-16T06:25:09.964Z,6.03
2017-09-16T06:27:36.193Z,4.90
2017-09-16T06:30:02.428Z,5.13
2017-09-16T06:32:28.712Z,5.10
2017-09-16T06:34:54.945Z,4.53
2017-09-16T06:37:21.161Z,4.20
2017-09-16T06:39:47.441Z,5.30
2017-09-16T06:42:13.775Z,3.73
2017-09-16T06:44:39.998Z,4.67
2017-09-16T06:47:06.273Z,5.17
2017-09-16T06:49:32.498Z,6.00
2017-09-16T06:51:58.741Z,6.13
2017-09-16T06:54:25.023Z,6.90
2017-09-16T06:56:51.247Z,8.17
2017-09-16T06:59:17.449Z,6.57
2017-09-16T07:01:43.739Z,7.07
2017-09-16T07:04:09.967Z,5.40
2017-09-16T07:06:36.408Z,6.10
2017-09-16T07:09:02.688Z,5.50
2017-09-16T07:11:28.916Z,5.53
2017-09-16T07:13:55.129Z,5.80
2017-09-16T07:16:21.391Z,5.33
2017-09-16T07:18:47.612Z,5.97
2017-09-16T07:21:13.839Z,4.67
2017-09-16T07:23:40.125Z,5.00
2017-09-16T07:26:06.355Z,5.87
2017-09-16T07:28:32.585Z,6.73
2017-09-16T07:30:58.858Z,6.20
2017-09-16T07:33:25.081Z,4.93
2017-09-16T07:35:51.294Z,4.68
2017-09-16T07:38:17.569Z,6.60
2017-09-16T07:40:43.811Z,6.12
2017-09-16T07:43:10.053Z,6.07
2017-09-16T07:45:36.321Z,7.95
2017-09-16T07:48:02.529Z,7.55
2017-09-16T07:50:28.745Z,7.47
2017-09-16T07:52:55.032Z,7.68
2017-09-16T07:55:21.245Z,3.58
2017-09-16T07:57:47.475Z,6.75
2017-09-16T08:00:13.767Z,3.60
2017-09-16T08:02:40.024Z,2.55
2017-09-16T08:05:06.218Z,2.58
2017-09-16T08:07:32.516Z,3.58
2017-09-16T08:09:58.726Z,3.33
2017-09-16T08:12:24.937Z,3.10
2017-09-16T08:14:51.194Z,2.47
2017-09-16T08:17:17.419Z,2.35
2017-09-16T08:19:43.652Z,2.62
2017-09-16T08:22:09.926Z,4.45
2017-09-16T08:24:36.158Z,2.33
2017-09-16T08:27:02.391Z,1.95
2017-09-16T08:29:28.683Z,2.92
2017-09-16T08:31:54.895Z,2.60
2017-09-16T08:34:21.121Z,2.67
2017-09-16T08:36:47.410Z,2.50
2017-09-16T08:39:13.621Z,1.90
2017-09-16T08:41:39.861Z,2.95
2017-09-16T08:44:06.147Z,2.83
2017-09-16T08:46:32.387Z,4.22
2017-09-16T08:48:58.611Z,3.60
2017-09-16T08:51:24.892Z,2.10
2017-09-16T08:53:51.113Z,1.95
2017-09-16T08:56:17.341Z,2.70
2017-09-16T08:58:43.628Z,2.83
2017-09-16T09:01:09.858Z,1.90
2017-09-16T09:03:36.076Z,2.10
2017-09-16T09:06:02.355Z,1.55
2017-09-16T09:08:28.575Z,2.05
2017-09-16T09:10:54.781Z,1.98
2017-09-16T09:13:21.019Z,2.25
2017-09-16T09:15:47.244Z,2.08
2017-09-16T09:18:13.480Z,1.60
2017-09-16T09:20:39.750Z,2.15
2017-09-16T09:23:05.961Z,1.90
2017-09-16T09:25:32.173Z,1.20
2017-09-16T09:27:58.476Z,1.70
2017-09-16T09:30:24.682Z,2.08
2017-09-16T09:32:50.912Z,1.67
2017-09-16T09:35:17.182Z,3.08
2017-09-16T09:37:43.412Z,2.33
2017-09-16T09:40:09.640Z,1.98
2017-09-16T09:42:35.910Z,2.95
2017-09-16T09:45:02.139Z,1.85
2017-09-16T09:47:28.360Z,1.98
2017-09-16T09:49:54.642Z,2.10
2017-09-16T09:52:20.913Z,2.03
2017-09-16T09:54:47.161Z,2.28
2017-09-16T09:57:13.480Z,2.35
2017-09-16T09:59:39.711Z,2.62
2017-09-16T10:02:05.936Z,2.20
2017-09-16T10:04:32.221Z,2.62
2017-09-16T10:06:58.439Z,2.15
2017-09-16T10:09:24.652Z,2.15
2017-09-16T10:11:50.932Z,2.10
2017-09-16T10:14:17.314Z,2.47
2017-09-16T10:16:43.545Z,2.22
2017-09-16T10:19:09.844Z,1.95
2017-09-16T10:21:36.044Z,1.80
2017-09-16T10:24:02.249Z,3.72
2017-09-16T10:26:28.517Z,2.45
2017-09-16T10:28:54.738Z,2.10
2017-09-16T10:31:20.960Z,1.90
2017-09-16T10:33:47.222Z,1.20
2017-09-16T10:36:13.440Z,1.92
2017-09-16T10:38:39.668Z,1.60
2017-09-16T10:41:05.939Z,1.92
2017-09-16T10:43:32.177Z,6.55
2017-09-16T10:45:58.389Z,1.90
2017-09-16T10:48:24.642Z,1.90
2017-09-16T10:50:50.905Z,3.40
2017-09-16T10:53:17.117Z,1.45
2017-09-16T10:55:43.392Z,1.67
2017-09-16T10:58:09.598Z,1.73
2017-09-16T11:00:35.818Z,2.28
2017-09-16T11:03:02.088Z,1.58
2017-09-16T11:05:28.308Z,1.65
2017-09-16T11:07:54.543Z,2.92
2017-09-16T11:10:20.829Z,1.70
2017-09-16T11:12:47.076Z,2.35
2017-09-16T11:15:13.301Z,2.17
2017-09-16T11:17:39.675Z,2.40
2017-09-16T11:20:05.911Z,1.80
2017-09-16T11:22:32.136Z,1.50
2017-09-16T11:24:58.416Z,1.62
2017-09-16T11:27:24.644Z,1.70
2017-09-16T11:29:50.884Z,1.73
2017-09-16T11:32:17.156Z,1.60
2017-09-16T11:34:43.402Z,1.87
2017-09-16T11:37:09.619Z,1.52
2017-09-16T11:39:35.903Z,2.33
2017-09-16T11:42:02.137Z,1.65
2017-09-16T11:44:28.357Z,1.62
2017-09-16T11:46:54.782Z,1.92
2017-09-16T11:49:20.995Z,1.83
2017-09-16T11:51:47.207Z,1.48
2017-09-16T11:54:13.480Z,2.25
2017-09-16T11:56:39.703Z,1.90
2017-09-16T11:59:05.918Z,2.42
2017-09-16T12:01:32.173Z,2.03
2017-09-16T12:03:58.398Z,3.03
2017-09-16T12:06:24.609Z,2.20
2017-09-16T12:08:50.906Z,2.05
2017-09-16T12:11:17.111Z,1.77
2017-09-16T12:13:43.320Z,2.00
2017-09-16T12:16:09.588Z,1.87
2017-09-16T12:18:35.815Z,1.75
2017-09-16T12:21:02.030Z,1.85
2017-09-16T12:23:28.288Z,2.90
2017-09-16T12:25:54.498Z,1.62
2017-09-16T12:28:20.719Z,1.87
2017-09-16T12:30:46.969Z,2.12
2017-09-16T12:33:13.180Z,2.53
2017-09-16T12:35:39.375Z,2.55
2017-09-16T12:38:05.636Z,2.37
2017-09-16T12:40:31.839Z,2.00
2017-09-16T12:42:58.059Z,1.95
2017-09-16T12:45:24.331Z,1.77
2017-09-16T12:47:50.519Z,1.92
2017-09-16T12:50:16.770Z,1.98
2017-09-16T12:52:43.025Z,1.60
2017-09-16T12:55:09.394Z,1.75
2017-09-16T12:57:35.585Z,1.48
2017-09-16T13:00:01.860Z,2.70
2017-09-16T13:02:28.062Z,1.73
2017-09-16T13:04:54.249Z,2.10
2017-09-16T13:07:20.568Z,2.42
2017-09-16T13:09:46.773Z,2.10
2017-09-16T13:12:12.954Z,1.90
2017-09-16T13:14:39.229Z,2.08
2017-09-16T13:17:05.439Z,2.03
2017-09-16T13:19:31.655Z,2.20
2017-09-16T13:21:57.895Z,3.33
2017-09-16T13:24:24.086Z,2.20
2017-09-16T13:26:50.291Z,2.80
2017-09-16T13:29:16.497Z,2.17
2017-09-16T13:31:42.702Z,1.70
2017-09-16T13:34:08.911Z,2.05
2017-09-16T13:36:35.124Z,2.47
2017-09-16T13:39:01.319Z,3.23
2017-09-16T13:41:27.557Z,2.60
2017-09-16T13:43:53.755Z,2.43
2017-09-16T13:46:19.968Z,2.73
2017-09-16T13:48:46.161Z,2.17
2017-09-16T13:51:12.376Z,2.73
2017-09-16T13:53:38.694Z,2.43
2017-09-16T13:56:04.961Z,3.00
2017-09-16T13:58:31.206Z,3.03
2017-09-16T14:00:57.439Z,2.73
2017-09-16T14:03:23.637Z,3.00
2017-09-16T14:05:49.893Z,2.37
2017-09-16T14:08:16.115Z,2.03
2017-09-16T14:10:42.336Z,2.97
2017-09-16T14:13:08.598Z,2.60
2017-09-16T14:15:34.809Z,2.70
2017-09-16T14:18:01.014Z,2.00
2017-09-16T14:20:27.256Z,4.77
2017-09-16T14:22:53.475Z,10.83
2017-09-16T14:25:19.683Z,4.00
2017-09-16T14:27:45.945Z,4.50
2017-09-16T14:30:12.138Z,4.60
2017-09-16T14:32:38.523Z,3.30
2017-09-16T14:35:04.760Z,2.77
2017-09-16T14:37:30.981Z,2.63
2017-09-16T14:39:57.211Z,3.33
2017-09-16T14:42:23.481Z,3.00
2017-09-16T14:44:49.661Z,2.63
2017-09-16T14:47:15.932Z,5.20
2017-09-16T14:49:42.192Z,5.90
2017-09-16T14:52:08.414Z,6.83
2017-09-16T14:54:34.632Z,2.20
2017-09-16T14:57:00.907Z,2.77
2017-09-16T14:59:27.270Z,2.60
2017-09-16T15:01:53.478Z,4.87
2017-09-16T15:04:19.752Z,2.00
2017-09-16T15:06:45.972Z,3.20
2017-09-16T15:09:12.169Z,3.03
2017-09-16T15:11:38.419Z,6.30
2017-09-16T15:14:04.631Z,5.07
2017-09-16T15:16:30.844Z,8.10
2017-09-16T15:18:57.100Z,4.07
2017-09-16T15:21:23.293Z,1.90
2017-09-16T15:23:49.506Z,2.67
2017-09-16T15:26:15.778Z,3.13
2017-09-16T15:28:41.996Z,2.80
2017-09-16T15:31:08.221Z,3.20
2017-09-16T15:33:34.494Z,3.60
2017-09-16T15:36:00.851Z,3.50
2017-09-16T15:38:27.074Z,2.80
2017-09-16T15:40:53.356Z,3.17
2017-09-16T15:43:19.560Z,3.60
2017-09-16T15:45:45.772Z,3.33
2017-09-16T15:48:12.047Z,12.33
2017-09-16T15:50:38.255Z,9.80
2017-09-16T15:53:04.467Z,12.03
2017-09-16T15:55:30.718Z,22.20
2017-09-16T15:57:56.919Z,6.17
2017-09-16T16:00:23.129Z,6.60
2017-09-16T16:02:49.371Z,6.27
2017-09-16T16:05:15.579Z,6.07
2017-09-16T16:07:41.780Z,5.60
2017-09-16T16:10:08.043Z,5.73
2017-09-16T16:12:34.273Z,5.67
2017-09-16T16:15:00.503Z,4.37
2017-09-16T16:17:26.759Z,4.60
2017-09-16T16:19:52.962Z,4.90
2017-09-16T16:22:19.167Z,3.97
2017-09-16T16:24:45.423Z,3.60
2017-09-16T16:27:11.618Z,4.47
2017-09-16T16:29:37.806Z,3.83
2017-09-16T16:32:04.069Z,3.30
2017-09-16T16:34:30.294Z,5.90
2017-09-16T16:36:56.609Z,4.30
2017-09-16T16:39:22.859Z,5.87
2017-09-16T16:41:49.039Z,5.63
2017-09-16T16:44:15.256Z,5.87
2017-09-16T16:46:41.497Z,5.00
2017-09-16T16:49:07.708Z,5.60
2017-09-16T16:51:33.994Z,10.87
2017-09-16T16:54:00.258Z,8.30
2017-09-16T16:56:26.476Z,6.77
2017-09-16T16:58:52.682Z,5.80
2017-09-16T17:01:18.942Z,5.40
2017-09-16T17:03:45.197Z,9.10
2017-09-16T17:06:11.419Z,8.27
2017-09-16T17:08:37.725Z,9.20
2017-09-16T17:11:03.952Z,6.73
2017-09-16T17:13:30.179Z,7.57
2017-09-16T17:15:56.434Z,8.03
2017-09-16T17:18:22.655Z,9.83
2017-09-16T17:20:48.907Z,7.20
2017-09-16T17:23:15.173Z,7.13
2017-09-16T17:25:41.584Z,6.80
2017-09-16T17:28:07.817Z,6.70
2017-09-16T17:30:34.067Z,6.87
2017-09-16T17:33:00.275Z,7.40
2017-09-16T17:35:26.468Z,6.40
2017-09-16T17:37:52.748Z,7.90
2017-09-16T17:40:19.003Z,7.43
2017-09-16T17:42:45.384Z,6.13
2017-09-16T17:45:11.637Z,8.20
2017-09-16T17:47:37.835Z,7.23
2017-09-16T17:50:04.047Z,6.67
2017-09-16T17:52:30.330Z,6.50
2017-09-16T17:54:56.531Z,8.27
2017-09-16T17:57:22.729Z,10.10
2017-09-16T17:59:48.989Z,8.47
2017-09-16T18:02:15.227Z,8.80
2017-09-16T18:04:41.425Z,9.47
2017-09-16T18:07:07.777Z,8.77
2017-09-16T18:09:33.965Z,8.97
2017-09-16T18:12:00.153Z,7.80
2017-09-16T18:14:26.423Z,8.73
2017-09-16T18:16:52.616Z,6.93
2017-09-16T18:19:18.834Z,5.97
2017-09-16T18:21:45.104Z,8.00
2017-09-16T18:24:11.317Z,8.00
2017-09-16T18:26:37.540Z,8.80
2017-09-16T18:29:03.806Z,8.57
2017-09-16T18:31:30.001Z,6.40
2017-09-16T18:33:56.215Z,7.57
2017-09-16T18:36:22.484Z,6.27
2017-09-16T18:38:48.689Z,7.40
2017-09-16T18:41:14.922Z,8.40
2017-09-16T18:43:41.177Z,8.10
2017-09-16T18:46:07.376Z,7.13
2017-09-16T18:48:33.585Z,6.80
2017-09-16T18:50:59.853Z,7.60
2017-09-16T18:53:26.068Z,9.57
2017-09-16T18:55:52.296Z,8.80
2017-09-16T18:58:18.573Z,13.37
2017-09-16T19:00:44.832Z,11.57
2017-09-16T19:03:11.156Z,11.13
2017-09-16T19:05:37.449Z,11.10
2017-09-16T19:08:03.672Z,11.30
2017-09-16T19:10:30.026Z,12.70
2017-09-16T19:12:56.291Z,8.80
2017-09-16T19:15:22.516Z,9.00
2017-09-16T19:17:48.732Z,8.30
2017-09-16T19:20:15.029Z,8.43
2017-09-16T19:22:41.343Z,8.80
2017-09-16T19:25:07.571Z,8.83
2017-09-16T19:27:33.849Z,9.60
2017-09-16T19:30:00.047Z,7.27
2017-09-16T19:32:26.244Z,8.40
2017-09-16T19:34:52.493Z,8.23
2017-09-16T19:37:18.673Z,8.60
2017-09-16T19:39:44.881Z,7.40
2017-09-16T19:42:11.161Z,8.53
2017-09-16T19:44:37.379Z,9.70
2017-09-16T19:47:03.572Z,8.83
2017-09-16T19:49:29.839Z,10.63
2017-09-16T19:51:56.028Z,7.70
2017-09-16T19:54:22.362Z,8.77
2017-09-16T19:56:48.620Z,9.80
2017-09-16T19:59:15.448Z,8.43
2017-09-16T20:01:41.673Z,8.77
2017-09-16T20:04:07.933Z,9.13
2017-09-16T20:06:34.134Z,7.70
2017-09-16T20:09:00.354Z,7.97
2017-09-16T20:11:26.614Z,9.97
2017-09-16T20:13:52.837Z,9.33
2017-09-16T20:16:19.050Z,7.60
2017-09-16T20:18:45.313Z,8.87
2017-09-16T20:21:11.521Z,8.00
2017-09-16T20:23:37.741Z,7.73
2017-09-16T20:26:03.991Z,10.20
2017-09-16T20:28:30.199Z,9.17
2017-09-16T20:30:56.609Z,7.47
2017-09-16T20:33:22.888Z,7.87
2017-09-16T20:35:49.083Z,10.93
2017-09-16T20:38:15.301Z,10.10
2017-09-16T20:40:41.574Z,13.10
2017-09-16T20:43:07.784Z,10.20
2017-09-16T20:45:33.990Z,8.37
2017-09-16T20:48:00.280Z,12.73
2017-09-16T20:50:26.492Z,11.10
2017-09-16T20:52:52.698Z,9.63
2017-09-16T20:55:18.971Z,14.50
2017-09-16T20:57:45.181Z,10.13
2017-09-16T21:00:11.397Z,7.60
2017-09-16T21:02:37.670Z,8.93
2017-09-16T21:05:03.881Z,9.50
2017-09-16T21:07:30.102Z,7.33
2017-09-16T21:09:56.370Z,7.10
2017-09-16T21:12:22.578Z,8.37
2017-09-16T21:14:48.800Z,8.83
2017-09-16T21:17:15.056Z,7.70
2017-09-16T21:19:41.259Z,10.43
2017-09-16T21:22:07.464Z,8.40
2017-09-16T21:24:33.710Z,7.93
2017-09-16T21:26:59.919Z,7.80
2017-09-16T21:29:26.287Z,8.17
2017-09-16T21:31:52.545Z,8.40
2017-09-16T21:34:18.762Z,8.57
2017-09-16T21:36:44.983Z,8.80
2017-09-16T21:39:11.258Z,8.83
2017-09-16T21:41:37.473Z,8.57
2017-09-16T21:44:03.701Z,9.20
2017-09-16T21:46:29.949Z,7.83
2017-09-16T21:48:56.152Z,9.40
2017-09-16T21:51:22.353Z,9.30
2017-09-16T21:53:48.598Z,10.53
2017-09-16T21:56:14.799Z,10.43
2017-09-16T21:58:41.001Z,9.20
2017-09-16T22:01:07.264Z,10.07
2017-09-16T22:03:33.464Z,9.73
2017-09-16T22:06:00.136Z,9.03
2017-09-16T22:08:26.476Z,9.07
2017-09-16T22:10:52.697Z,8.47
2017-09-16T22:13:18.911Z,8.37
2017-09-16T22:15:45.177Z,8.40
2017-09-16T22:18:11.400Z,9.47
2017-09-16T22:20:37.637Z,10.27
2017-09-16T22:23:03.912Z,10.53
2017-09-16T22:25:30.137Z,10.07
2017-09-16T22:27:56.355Z,9.50
2017-09-16T22:30:22.628Z,10.50
2017-09-16T22:32:48.849Z,8.33
2017-09-16T22:35:15.093Z,7.43
2017-09-16T22:37:41.384Z,6.97
2017-09-16T22:40:07.614Z,9.80
2017-09-16T22:42:33.837Z,9.73
2017-09-16T22:45:00.198Z,9.70
2017-09-16T22:47:26.426Z,9.50
2017-09-16T22:49:52.663Z,8.87
2017-09-16T22:52:18.951Z,8.40
2017-09-16T22:54:45.320Z,12.47
2017-09-16T22:57:11.541Z,9.63
2017-09-16T22:59:37.855Z,9.33
2017-09-16T23:02:04.215Z,8.10
2017-09-16T23:04:30.442Z,8.77
2017-09-16T23:06:56.724Z,9.23
2017-09-16T23:09:22.935Z,8.90
2017-09-16T23:11:49.156Z,8.80
2017-09-16T23:14:15.423Z,8.23
2017-09-16T23:16:41.656Z,8.20
2017-09-16T23:19:07.980Z,9.20
2017-09-16T23:21:34.241Z,8.10
2017-09-16T23:24:00.453Z,9.33
2017-09-16T23:26:26.686Z,8.17
2017-09-16T23:28:52.983Z,8.87
2017-09-16T23:31:19.204Z,8.77
2017-09-16T23:33:45.424Z,8.77
2017-09-16T23:36:11.704Z,9.00
2017-09-16T23:38:37.947Z,9.77
2017-09-16T23:41:04.157Z,9.70
2017-09-16T23:43:30.507Z,9.27
2017-09-16T23:45:56.710Z,9.63
2017-09-16T23:48:22.935Z,11.23
2017-09-16T23:50:49.210Z,10.90
2017-09-16T23:53:15.433Z,9.23
2017-09-16T23:55:41.638Z,9.37
2017-09-16T23:58:07.899Z,10.80
